Ankeny, Iowa
Current Conditions -  °F | °C
As of 11:35 PM on Thursday 30 Oct 2014 (Local Time) from KIKV Reporting Station
Broken Clouds Broken Clouds  
Wind Chill: 39°   Ceiling: 3400
Heat Index: 46°   Visibility: 10mi
Dew Point: 32°   Wind: 22mph
Humidity: 57%   Direction: 350°N
Pressure: 30.25"   Gusts: 36mph
Location:  41.73°N, 93.6°W
Report Text: KIKV 310435Z AUTO 35019G31KT 10SM BKN034 08/00 A3025 RMK AO2
Loading
Personal Weather Stations






























Interactive Weather Map
Tropical Storm Tracking
New forecast layout! Learn more

10-Day Weather Forecast

Advertisements
Track Severe Weather on mobile